createdAt,value
2022-08-05T00:04:37.749Z,5.35
2022-08-05T00:10:41.757Z,5.00
2022-08-05T00:16:52.908Z,4.53
2022-08-05T00:22:59.590Z,5.13
2022-08-05T00:29:04.019Z,5.70
2022-08-05T00:35:07.576Z,5.47
2022-08-05T00:41:11.633Z,5.53
2022-08-05T00:47:16.357Z,4.90
2022-08-05T00:54:01.242Z,4.88
2022-08-05T00:59:44.245Z,4.82
2022-08-05T01:05:45.956Z,4.93
2022-08-05T01:11:49.000Z,4.95
2022-08-05T01:17:53.513Z,4.70
2022-08-05T01:23:55.983Z,5.35
2022-08-05T01:29:58.227Z,4.70
2022-08-05T01:35:59.750Z,4.55
2022-08-05T01:42:01.209Z,4.70
2022-08-05T01:48:03.298Z,5.03
2022-08-05T01:54:11.876Z,4.75
2022-08-05T02:00:19.497Z,4.70
2022-08-05T02:06:36.928Z,4.43
2022-08-05T02:12:39.575Z,4.97
2022-08-05T02:18:42.076Z,4.07
2022-08-05T02:24:43.636Z,4.13
2022-08-05T02:30:54.761Z,4.50
2022-08-05T02:36:58.062Z,4.53
2022-08-05T02:42:59.556Z,4.15
2022-08-05T02:49:01.075Z,4.25
2022-08-05T02:55:05.177Z,4.70
2022-08-05T03:01:07.954Z,4.25
2022-08-05T03:07:40.530Z,4.40
2022-08-05T03:13:51.532Z,4.50
2022-08-05T03:19:55.800Z,3.85
2022-08-05T03:26:04.598Z,4.50
2022-08-05T03:32:21.603Z,4.03
2022-08-05T03:38:33.191Z,4.88
2022-08-05T03:44:38.779Z,4.35
2022-08-05T03:50:40.752Z,4.13
2022-08-05T03:56:46.943Z,4.18
2022-08-05T04:02:57.807Z,4.38
2022-08-05T04:09:00.394Z,4.93
2022-08-05T04:15:01.877Z,5.03
2022-08-05T04:21:05.341Z,4.60
2022-08-05T04:27:07.271Z,4.65
2022-08-05T04:33:09.126Z,4.43
2022-08-05T04:39:11.099Z,4.43
2022-08-05T04:45:22.892Z,4.78
2022-08-05T04:51:32.883Z,5.45
2022-08-05T04:57:37.206Z,5.13
2022-08-05T05:03:42.225Z,5.97
2022-08-05T05:09:44.382Z,6.20
2022-08-05T05:15:56.141Z,6.05
2022-08-05T05:22:22.978Z,5.78
2022-08-05T05:28:22.452Z,6.15
2022-08-05T05:34:27.318Z,6.78
2022-08-05T05:40:28.931Z,8.07
2022-08-05T05:46:31.650Z,8.88
2022-08-05T05:52:37.923Z,8.95
2022-08-05T05:58:42.176Z,8.55
2022-08-05T06:04:44.106Z,7.68
2022-08-05T06:10:52.877Z,8.27
2022-08-05T06:16:54.880Z,11.85
2022-08-05T06:22:58.435Z,10.35
2022-08-05T06:29:00.228Z,10.35
2022-08-05T06:35:05.925Z,10.63
2022-08-05T06:41:16.950Z,11.43
2022-08-05T06:48:11.867Z,10.90
2022-08-05T06:53:40.322Z,10.35
2022-08-05T06:59:42.325Z,9.85
2022-08-05T07:05:57.037Z,9.88
2022-08-05T07:12:00.530Z,9.38
2022-08-05T07:18:09.774Z,9.32
2022-08-05T07:24:13.788Z,8.80
2022-08-05T07:30:24.083Z,10.30
2022-08-05T07:36:33.781Z,9.88
2022-08-05T07:42:36.328Z,8.77
2022-08-05T07:49:03.953Z,10.88
2022-08-05T07:55:00.072Z,9.30
2022-08-05T08:01:01.712Z,9.43
2022-08-05T08:07:07.951Z,8.45
2022-08-05T08:13:09.773Z,13.80
2022-08-05T08:19:37.956Z,10.70
2022-08-05T08:26:00.260Z,13.02
2022-08-05T08:31:56.988Z,8.30
2022-08-05T08:37:58.987Z,8.13
2022-08-05T08:45:22.151Z,7.28
2022-08-05T08:50:32.784Z,8.50
2022-08-05T08:56:47.605Z,8.45
2022-08-05T09:02:51.361Z,8.77
2022-08-05T09:08:53.300Z,8.65
2022-08-05T09:14:58.635Z,8.75
2022-08-05T09:21:11.506Z,9.13
2022-08-05T09:27:13.409Z,10.07
2022-08-05T09:33:35.660Z,10.32
2022-08-05T09:39:41.550Z,10.05
2022-08-05T09:46:07.735Z,10.68
2022-08-05T09:52:09.715Z,9.57
2022-08-05T09:58:13.034Z,9.20
2022-08-05T10:04:16.150Z,41.08
2022-08-05T10:10:28.058Z,47.80
2022-08-05T10:16:30.750Z,31.70
2022-08-05T10:22:34.987Z,13.15
2022-08-05T10:28:39.796Z,19.50
2022-08-05T10:34:43.877Z,17.48
2022-08-05T10:40:46.387Z,17.52
2022-08-05T10:46:50.767Z,16.10
2022-08-05T10:53:00.141Z,16.50
2022-08-05T10:59:12.129Z,14.98
2022-08-05T11:05:14.428Z,15.70
2022-08-05T11:11:20.226Z,16.58
2022-08-05T11:17:59.038Z,14.85
2022-08-05T11:24:02.879Z,15.13
2022-08-05T11:30:05.614Z,13.63
2022-08-05T11:36:11.885Z,14.93
2022-08-05T11:42:18.568Z,15.43
2022-08-05T11:48:21.560Z,15.35
2022-08-05T11:54:33.779Z,15.98
2022-08-05T12:00:38.539Z,14.65
2022-08-05T12:06:40.698Z,15.05
2022-08-05T12:12:59.388Z,15.85
2022-08-05T12:19:01.697Z,14.65
2022-08-05T12:25:03.836Z,14.88
2022-08-05T12:31:06.269Z,13.68
2022-08-05T12:37:16.227Z,13.38
2022-08-05T12:43:23.237Z,13.57
2022-08-05T12:49:25.593Z,13.60
2022-08-05T12:55:28.404Z,13.20
2022-08-05T13:02:01.592Z,17.25
2022-08-05T13:07:57.809Z,19.35
2022-08-05T13:14:05.790Z,19.27
2022-08-05T13:20:09.066Z,19.90
2022-08-05T13:26:13.064Z,19.98
2022-08-05T13:32:15.249Z,20.92
2022-08-05T13:38:36.125Z,21.20
2022-08-05T13:44:44.611Z,21.90
2022-08-05T13:50:47.116Z,20.45
2022-08-05T13:56:51.582Z,20.48
2022-08-05T14:02:53.409Z,20.65
2022-08-05T14:08:54.965Z,19.17
2022-08-05T14:15:01.098Z,18.15
2022-08-05T14:21:23.822Z,17.77
2022-08-05T14:27:47.472Z,19.05
2022-08-05T14:33:59.287Z,16.58
2022-08-05T14:40:03.154Z,16.42
2022-08-05T14:46:05.913Z,15.32
2022-08-05T14:52:10.121Z,16.55
2022-08-05T14:58:14.198Z,15.07
2022-08-05T15:04:16.006Z,14.50
2022-08-05T15:10:17.884Z,14.73
2022-08-05T15:16:30.841Z,14.50
2022-08-05T15:22:33.983Z,13.15
2022-08-05T15:28:35.800Z,12.90
2022-08-05T15:34:44.452Z,9.77
2022-08-05T15:41:21.235Z,7.93
2022-08-05T15:47:07.346Z,7.38
2022-08-05T15:53:09.611Z,7.65
2022-08-05T15:59:21.720Z,11.52
2022-08-05T16:05:23.591Z,9.15
2022-08-05T16:11:42.884Z,9.80
2022-08-05T16:17:47.594Z,11.48
2022-08-05T16:24:01.637Z,10.15
2022-08-05T16:30:04.899Z,11.52
2022-08-05T16:36:07.135Z,12.90
2022-08-05T16:42:14.382Z,14.00
2022-08-05T16:48:25.006Z,12.77
2022-08-05T16:54:32.912Z,11.68
2022-08-05T17:00:37.903Z,11.18
2022-08-05T17:06:41.984Z,12.45
2022-08-05T17:12:51.883Z,10.82
2022-08-05T17:18:53.925Z,10.73
2022-08-05T17:24:57.449Z,11.25
2022-08-05T17:30:59.800Z,10.13
2022-08-05T17:37:27.358Z,10.10
2022-08-05T17:43:53.026Z,11.00
2022-08-05T17:50:04.016Z,9.82
2022-08-05T17:56:06.715Z,10.88
2022-08-05T18:02:09.915Z,10.40
2022-08-05T18:08:12.441Z,10.07
2022-08-05T18:14:20.642Z,10.15
2022-08-05T18:20:29.513Z,11.82
2022-08-05T18:26:33.622Z,11.73
2022-08-05T18:32:35.159Z,9.85
2022-08-05T18:38:40.697Z,10.55
2022-08-05T18:44:51.791Z,8.48
2022-08-05T18:52:05.398Z,8.98
2022-08-05T18:57:43.650Z,13.20
2022-08-05T19:03:55.429Z,16.13
2022-08-05T19:09:58.213Z,10.50
2022-08-05T19:16:03.843Z,10.98
2022-08-05T19:22:05.458Z,10.40
2022-08-05T19:28:06.895Z,10.82
2022-08-05T19:34:08.776Z,9.95
2022-08-05T19:40:10.755Z,14.15
2022-08-05T19:46:16.812Z,10.00
2022-08-05T19:52:32.490Z,9.57
2022-08-05T19:58:53.344Z,12.50
2022-08-05T20:04:59.000Z,10.83
2022-08-05T20:11:01.205Z,10.70
2022-08-05T20:17:06.588Z,12.50
2022-08-05T20:23:08.512Z,12.20
2022-08-05T20:29:27.670Z,11.25
2022-08-05T20:35:29.389Z,11.43
2022-08-05T20:41:44.308Z,11.70
2022-08-05T20:47:46.824Z,10.95
2022-08-05T20:53:56.296Z,11.27
2022-08-05T21:00:19.891Z,10.48
2022-08-05T21:06:28.570Z,10.35
2022-08-05T21:12:31.277Z,10.00
2022-08-05T21:18:34.821Z,10.48
2022-08-05T21:24:37.418Z,10.70
2022-08-05T21:30:39.159Z,10.43
2022-08-05T21:36:42.601Z,10.13
2022-08-05T21:42:48.551Z,9.70
2022-08-05T21:48:53.609Z,9.88
2022-08-05T21:55:06.418Z,9.18
2022-08-05T22:01:08.695Z,8.73
2022-08-05T22:07:12.381Z,8.70
2022-08-05T22:14:19.360Z,9.07
2022-08-05T22:19:57.534Z,8.35
2022-08-05T22:26:15.776Z,9.27
2022-08-05T22:32:17.731Z,8.85
2022-08-05T22:38:19.762Z,7.85
2022-08-05T22:44:21.323Z,7.82
2022-08-05T22:50:26.767Z,7.50
2022-08-05T22:56:30.103Z,7.15
2022-08-05T23:02:32.713Z,7.47
2022-08-05T23:08:34.425Z,7.97
2022-08-05T23:14:37.594Z,8.15
2022-08-05T23:20:39.188Z,7.47
2022-08-05T23:26:41.252Z,8.18
2022-08-05T23:32:45.647Z,7.70
2022-08-05T23:38:47.102Z,7.07
2022-08-05T23:44:54.483Z,7.88
2022-08-05T23:50:56.092Z,7.78
2022-08-05T23:57:03.722Z,7.38
